createdAt,value
2022-11-03T00:00:01.532Z,2.40
2022-11-03T00:02:48.456Z,2.83
2022-11-03T00:05:53.741Z,2.10
2022-11-03T00:08:41.801Z,1.77
2022-11-03T00:11:28.801Z,2.40
2022-11-03T00:14:15.650Z,2.40
2022-11-03T00:17:02.540Z,2.23
2022-11-03T00:19:49.350Z,2.10
2022-11-03T00:22:36.146Z,2.23
2022-11-03T00:25:22.942Z,2.20
2022-11-03T00:28:09.839Z,1.80
2022-11-03T00:30:56.683Z,2.43
2022-11-03T00:33:43.846Z,2.43
2022-11-03T00:36:34.749Z,2.83
2022-11-03T00:39:21.545Z,2.27
2022-11-03T00:42:08.505Z,2.23
2022-11-03T00:44:55.378Z,2.23
2022-11-03T00:48:02.314Z,2.53
2022-11-03T00:50:49.075Z,2.53
2022-11-03T00:53:37.589Z,2.30
2022-11-03T00:56:28.831Z,2.53
2022-11-03T00:59:15.701Z,2.20
2022-11-03T01:02:02.574Z,2.63
2022-11-03T01:05:08.155Z,2.40
2022-11-03T01:07:55.319Z,2.50
2022-11-03T01:11:02.117Z,2.23
2022-11-03T01:13:48.967Z,1.97
2022-11-03T01:16:35.828Z,2.03
2022-11-03T01:19:23.784Z,2.27
2022-11-03T01:22:11.435Z,2.20
2022-11-03T01:24:58.562Z,1.90
2022-11-03T01:27:45.545Z,2.70
2022-11-03T01:30:32.932Z,1.90
2022-11-03T01:33:19.798Z,2.37
2022-11-03T01:36:06.809Z,2.07
2022-11-03T01:38:54.957Z,1.83
2022-11-03T01:41:42.645Z,2.10
2022-11-03T01:44:34.186Z,2.20
2022-11-03T01:47:28.829Z,2.40
2022-11-03T01:50:17.630Z,2.20
2022-11-03T01:53:04.827Z,2.20
2022-11-03T01:55:52.095Z,2.57
2022-11-03T01:58:40.182Z,2.00
2022-11-03T02:01:27.270Z,2.10
2022-11-03T02:04:19.526Z,2.17
2022-11-03T02:07:11.062Z,2.10
2022-11-03T02:09:57.981Z,2.97
2022-11-03T02:12:44.972Z,2.70
2022-11-03T02:15:32.288Z,2.60
2022-11-03T02:18:20.130Z,2.07
2022-11-03T02:21:13.021Z,2.60
2022-11-03T02:24:24.538Z,2.20
2022-11-03T02:27:11.349Z,2.07
2022-11-03T02:29:59.059Z,2.37
2022-11-03T02:32:45.829Z,2.33
2022-11-03T02:35:38.842Z,2.37
2022-11-03T02:38:28.310Z,2.63
2022-11-03T02:41:16.267Z,2.57
2022-11-03T02:44:04.435Z,2.90
2022-11-03T02:46:55.727Z,2.97
2022-11-03T02:49:47.044Z,2.10
2022-11-03T02:52:38.714Z,2.33
2022-11-03T02:55:40.791Z,2.00
2022-11-03T02:58:27.629Z,2.47
2022-11-03T03:01:34.799Z,2.77
2022-11-03T03:04:34.698Z,2.63
2022-11-03T03:07:26.639Z,2.33
2022-11-03T03:10:33.715Z,2.37
2022-11-03T03:13:22.527Z,2.40
2022-11-03T03:16:09.297Z,2.90
2022-11-03T03:19:02.397Z,2.57
2022-11-03T03:21:51.254Z,2.50
2022-11-03T03:24:48.459Z,2.13
2022-11-03T03:27:38.290Z,2.97
2022-11-03T03:30:25.278Z,2.90
2022-11-03T03:33:13.351Z,2.70
2022-11-03T03:36:01.845Z,2.53
2022-11-03T03:38:50.900Z,2.20
2022-11-03T03:41:38.039Z,2.87
2022-11-03T03:44:25.018Z,3.23
2022-11-03T03:47:23.416Z,2.80
2022-11-03T03:50:10.386Z,2.63
2022-11-03T03:53:01.279Z,2.77
2022-11-03T03:55:51.860Z,2.30
2022-11-03T03:58:38.738Z,2.90
2022-11-03T04:01:25.605Z,2.20
2022-11-03T04:04:12.593Z,2.70
2022-11-03T04:07:18.269Z,2.70
2022-11-03T04:10:05.360Z,2.77
2022-11-03T04:13:10.751Z,2.50
2022-11-03T04:16:18.288Z,2.60
2022-11-03T04:19:23.828Z,3.10
2022-11-03T04:22:16.819Z,2.80
2022-11-03T04:25:03.760Z,2.90
2022-11-03T04:27:51.250Z,2.70
2022-11-03T04:30:38.271Z,3.20
2022-11-03T04:33:25.117Z,2.90
2022-11-03T04:36:23.347Z,2.27
2022-11-03T04:39:19.943Z,2.63
2022-11-03T04:42:14.513Z,2.83
2022-11-03T04:45:02.299Z,2.83
2022-11-03T04:47:49.232Z,3.00
2022-11-03T04:50:36.190Z,2.60
2022-11-03T04:53:23.499Z,3.03
2022-11-03T04:56:14.885Z,2.83
2022-11-03T04:59:01.738Z,3.10
2022-11-03T05:01:48.647Z,3.00
2022-11-03T05:04:35.618Z,2.83
2022-11-03T05:07:33.617Z,2.70
2022-11-03T05:10:23.362Z,3.37
2022-11-03T05:13:36.525Z,3.07
2022-11-03T05:16:24.625Z,2.67
2022-11-03T05:19:20.558Z,2.67
2022-11-03T05:22:13.069Z,2.60
2022-11-03T05:25:06.597Z,3.27
2022-11-03T05:27:53.428Z,2.90
2022-11-03T05:30:40.204Z,3.10
2022-11-03T05:33:29.498Z,2.23
2022-11-03T05:36:21.711Z,2.73
2022-11-03T05:39:26.611Z,2.60
2022-11-03T05:42:22.610Z,2.73
2022-11-03T05:45:20.384Z,3.23
2022-11-03T05:48:18.502Z,2.80
2022-11-03T05:51:21.422Z,2.90
2022-11-03T05:54:19.511Z,2.70
2022-11-03T05:57:17.046Z,3.07
2022-11-03T06:00:04.667Z,3.00
2022-11-03T06:02:51.528Z,2.80
2022-11-03T06:05:38.379Z,2.50
2022-11-03T06:08:33.540Z,2.67
2022-11-03T06:11:32.792Z,2.57
2022-11-03T06:14:23.997Z,2.83
2022-11-03T06:17:18.752Z,2.37
2022-11-03T06:20:07.916Z,2.90
2022-11-03T06:22:55.907Z,2.90
2022-11-03T06:25:43.503Z,3.47
2022-11-03T06:28:31.898Z,3.40
2022-11-03T06:31:21.901Z,2.77
2022-11-03T06:34:30.018Z,3.17
2022-11-03T06:37:27.576Z,2.67
2022-11-03T06:40:15.096Z,3.03
2022-11-03T06:43:11.221Z,2.70
2022-11-03T06:45:59.177Z,3.17
2022-11-03T06:48:46.156Z,2.90
2022-11-03T06:51:35.524Z,3.43
2022-11-03T06:54:22.594Z,2.80
2022-11-03T06:57:14.306Z,2.67
2022-11-03T07:00:20.532Z,3.13
2022-11-03T07:03:08.630Z,3.07
2022-11-03T07:06:00.330Z,2.40
2022-11-03T07:08:52.032Z,3.10
2022-11-03T07:11:44.535Z,2.90
2022-11-03T07:14:32.649Z,2.90
2022-11-03T07:17:22.174Z,2.77
2022-11-03T07:20:18.624Z,2.70
2022-11-03T07:23:05.765Z,2.60
2022-11-03T07:25:54.959Z,2.97
2022-11-03T07:28:41.807Z,2.70
2022-11-03T07:31:28.664Z,2.90
2022-11-03T07:34:19.812Z,3.03
2022-11-03T07:37:09.240Z,3.07
2022-11-03T07:39:58.695Z,2.60
2022-11-03T07:42:45.746Z,2.37
2022-11-03T07:45:35.519Z,2.90
2022-11-03T07:48:23.886Z,3.07
2022-11-03T07:51:28.664Z,3.03
2022-11-03T07:54:16.617Z,2.33
2022-11-03T07:57:23.265Z,2.90
2022-11-03T08:00:13.149Z,2.93
2022-11-03T08:03:00.513Z,2.50
2022-11-03T08:05:47.364Z,3.27
2022-11-03T08:08:34.153Z,2.90
2022-11-03T08:11:26.087Z,3.10
2022-11-03T08:14:16.275Z,2.67
2022-11-03T08:17:03.249Z,2.73
2022-11-03T08:19:50.516Z,2.70
2022-11-03T08:22:37.449Z,3.00
2022-11-03T08:25:24.513Z,2.83
2022-11-03T08:28:11.508Z,2.90
2022-11-03T08:31:09.438Z,3.27
2022-11-03T08:33:59.052Z,2.57
2022-11-03T08:36:45.901Z,2.60
2022-11-03T08:39:32.865Z,2.97
2022-11-03T08:42:19.649Z,2.80
2022-11-03T08:45:06.810Z,3.07
2022-11-03T08:47:53.726Z,2.77
2022-11-03T08:50:40.810Z,3.40
2022-11-03T08:53:27.754Z,2.80
2022-11-03T08:56:17.014Z,2.60
2022-11-03T08:59:05.896Z,2.53
2022-11-03T09:01:52.735Z,2.23
2022-11-03T09:04:39.547Z,2.80
2022-11-03T09:10:35.705Z,2.67
2022-11-03T09:13:25.215Z,3.10
2022-11-03T09:16:12.070Z,2.80
2022-11-03T09:18:58.902Z,2.70
2022-11-03T09:21:45.702Z,2.53
2022-11-03T09:24:32.453Z,2.73
2022-11-03T09:27:19.424Z,2.87
2022-11-03T09:30:13.404Z,2.40
2022-11-03T09:33:00.882Z,2.67
2022-11-03T09:35:47.671Z,2.80
2022-11-03T09:38:34.441Z,2.60
2022-11-03T09:41:27.625Z,2.90
2022-11-03T09:44:22.273Z,2.53
2022-11-03T09:47:22.334Z,2.50
2022-11-03T09:50:20.036Z,2.57
2022-11-03T09:53:09.881Z,2.30
2022-11-03T09:55:56.905Z,2.93
2022-11-03T09:58:43.764Z,2.90
2022-11-03T10:01:30.808Z,2.47
2022-11-03T10:04:20.199Z,2.97
2022-11-03T10:07:08.074Z,2.37
2022-11-03T10:09:59.096Z,2.70
2022-11-03T10:12:46.791Z,2.43
2022-11-03T10:15:33.586Z,2.90
2022-11-03T10:18:20.446Z,2.50
2022-11-03T10:21:13.423Z,2.73
2022-11-03T10:24:00.426Z,2.60
2022-11-03T10:26:48.614Z,2.30
2022-11-03T10:29:38.815Z,2.67
2022-11-03T10:32:30.922Z,2.00
2022-11-03T10:35:32.435Z,2.80
2022-11-03T10:38:26.062Z,2.40
2022-11-03T10:41:14.981Z,2.43
2022-11-03T10:44:10.889Z,3.33
2022-11-03T10:47:05.594Z,3.13
2022-11-03T10:49:55.021Z,2.30
2022-11-03T10:52:42.613Z,2.43
2022-11-03T10:55:29.498Z,2.30
2022-11-03T10:58:17.988Z,2.10
2022-11-03T11:01:05.864Z,2.40
2022-11-03T11:03:52.892Z,2.73
2022-11-03T11:06:40.544Z,2.20
2022-11-03T11:09:28.265Z,3.20
2022-11-03T11:12:16.939Z,2.57
2022-11-03T11:15:23.714Z,2.33
2022-11-03T11:18:11.285Z,2.67
2022-11-03T11:21:01.859Z,2.40
2022-11-03T11:23:49.289Z,2.23
2022-11-03T11:26:36.287Z,2.60
2022-11-03T11:29:29.282Z,2.87
2022-11-03T11:32:48.522Z,2.60
2022-11-03T11:35:35.341Z,2.40
2022-11-03T11:38:40.849Z,2.40
2022-11-03T11:41:47.153Z,2.50
2022-11-03T11:44:40.179Z,2.30
2022-11-03T11:47:28.961Z,3.20
2022-11-03T11:50:22.904Z,2.63
2022-11-03T11:53:11.321Z,2.70
2022-11-03T11:55:59.198Z,2.73
2022-11-03T11:58:50.674Z,2.17
2022-11-03T12:01:37.935Z,2.60
2022-11-03T12:04:29.292Z,2.57
2022-11-03T12:07:16.273Z,2.37
2022-11-03T12:10:09.862Z,2.13
2022-11-03T12:12:57.479Z,3.13
2022-11-03T12:15:54.450Z,2.30
2022-11-03T12:18:49.321Z,2.63
2022-11-03T12:21:46.416Z,2.40
2022-11-03T12:24:33.382Z,2.70
2022-11-03T12:27:26.604Z,2.70
2022-11-03T12:30:16.600Z,2.47
2022-11-03T12:33:03.775Z,2.33
2022-11-03T12:35:51.140Z,2.20
2022-11-03T12:38:38.122Z,2.40
2022-11-03T12:41:25.613Z,2.20
2022-11-03T12:44:12.528Z,2.30
2022-11-03T12:46:59.607Z,2.20
2022-11-03T12:49:46.434Z,2.60
2022-11-03T12:52:33.338Z,2.10
2022-11-03T12:55:20.229Z,2.30
2022-11-03T12:58:07.296Z,2.63
2022-11-03T13:00:56.330Z,2.57
2022-11-03T13:03:45.737Z,2.37
2022-11-03T13:06:33.150Z,2.70
2022-11-03T13:09:19.999Z,2.50
2022-11-03T13:12:25.593Z,2.07
2022-11-03T13:15:13.700Z,2.50
2022-11-03T13:18:13.431Z,2.17
2022-11-03T13:21:01.674Z,2.70
2022-11-03T13:23:48.552Z,2.43
2022-11-03T13:26:35.527Z,2.30
2022-11-03T13:29:22.371Z,2.17
2022-11-03T13:32:09.235Z,2.80
2022-11-03T13:34:56.082Z,2.73
2022-11-03T13:37:42.968Z,2.40
2022-11-03T13:40:55.041Z,2.67
2022-11-03T13:43:36.866Z,2.67
2022-11-03T13:46:23.738Z,2.47
2022-11-03T13:52:17.427Z,2.67
2022-11-03T14:01:18.671Z,2.30
2022-11-03T14:07:12.546Z,2.43
2022-11-03T14:10:02.584Z,2.70
2022-11-03T14:12:50.938Z,2.50
2022-11-03T14:15:37.810Z,2.30
2022-11-03T14:18:24.611Z,2.10
2022-11-03T14:21:11.369Z,2.33
2022-11-03T14:23:58.622Z,2.50
2022-11-03T14:26:45.550Z,2.60
2022-11-03T14:29:32.523Z,2.67
2022-11-03T14:32:19.853Z,2.20
2022-11-03T14:35:07.778Z,2.23
2022-11-03T14:37:54.641Z,2.80
2022-11-03T14:41:00.121Z,2.90
2022-11-03T14:43:46.976Z,2.50
2022-11-03T14:46:33.883Z,3.20
2022-11-03T14:49:20.670Z,2.60
2022-11-03T14:52:07.873Z,2.80
2022-11-03T14:54:55.151Z,2.87
2022-11-03T14:57:42.009Z,2.60
2022-11-03T15:00:28.852Z,2.30
2022-11-03T15:03:15.696Z,2.77
2022-11-03T15:06:02.511Z,2.57
2022-11-03T15:08:53.575Z,2.80
2022-11-03T15:11:43.501Z,2.83
2022-11-03T15:14:30.653Z,2.60
2022-11-03T15:17:17.446Z,2.90
2022-11-03T15:20:04.430Z,2.83
2022-11-03T15:25:58.085Z,2.30
2022-11-03T15:28:44.906Z,3.20
2022-11-03T15:31:31.941Z,2.40
2022-11-03T15:34:18.871Z,2.73
2022-11-03T15:37:05.674Z,2.97
2022-11-03T15:39:54.653Z,2.60
2022-11-03T15:42:45.428Z,2.50
2022-11-03T15:45:32.781Z,2.97
2022-11-03T15:48:19.596Z,2.30
2022-11-03T15:51:06.659Z,2.40
2022-11-03T15:53:58.520Z,2.87
2022-11-03T15:56:46.182Z,2.20
2022-11-03T15:59:33.066Z,2.73
2022-11-03T16:02:40.055Z,2.87
2022-11-03T16:05:26.683Z,2.27
2022-11-03T16:08:13.475Z,2.60
2022-11-03T16:11:00.274Z,2.70
2022-11-03T16:13:47.259Z,2.40
2022-11-03T16:16:34.079Z,3.00
2022-11-03T16:19:20.928Z,3.00
2022-11-03T16:22:07.823Z,2.60
2022-11-03T16:24:55.107Z,3.50
2022-11-03T16:27:41.978Z,3.10
2022-11-03T16:30:28.835Z,2.80
2022-11-03T16:33:15.741Z,3.07
2022-11-03T16:36:02.547Z,3.10
2022-11-03T16:38:49.420Z,2.60
2022-11-03T16:41:36.554Z,3.10
2022-11-03T16:44:23.583Z,3.00
2022-11-03T16:47:10.398Z,2.80
2022-11-03T16:49:57.222Z,2.83
2022-11-03T16:52:44.661Z,2.57
2022-11-03T16:55:31.494Z,3.10
2022-11-03T16:58:21.397Z,2.40
2022-11-03T17:01:08.289Z,3.67
2022-11-03T17:03:55.211Z,2.83
2022-11-03T17:06:42.267Z,2.73
2022-11-03T17:09:29.250Z,2.47
2022-11-03T17:12:16.230Z,2.90
2022-11-03T17:15:03.461Z,2.63
2022-11-03T17:17:50.540Z,3.00
2022-11-03T17:20:37.349Z,2.60
2022-11-03T17:23:24.289Z,3.00
2022-11-03T17:26:11.451Z,2.77
2022-11-03T17:28:58.570Z,2.67
2022-11-03T17:31:45.478Z,2.53
2022-11-03T17:34:32.298Z,2.97
2022-11-03T17:37:19.366Z,3.17
2022-11-03T17:40:10.587Z,3.23
2022-11-03T17:42:57.456Z,2.70
2022-11-03T17:45:44.256Z,3.17
2022-11-03T17:48:31.066Z,2.90
2022-11-03T17:51:17.872Z,2.73
2022-11-03T17:54:06.312Z,3.20
2022-11-03T17:56:53.412Z,2.97
2022-11-03T17:59:40.350Z,3.10
2022-11-03T18:02:28.904Z,3.20
2022-11-03T18:05:24.158Z,2.97
2022-11-03T18:08:11.867Z,3.10
2022-11-03T18:10:58.721Z,3.07
2022-11-03T18:13:45.912Z,2.83
2022-11-03T18:16:32.748Z,2.93
2022-11-03T18:19:20.411Z,3.07
2022-11-03T18:22:09.489Z,3.07
2022-11-03T18:24:59.082Z,3.30
2022-11-03T18:27:47.044Z,3.00
2022-11-03T18:30:35.802Z,2.83
2022-11-03T18:33:25.332Z,3.40
2022-11-03T18:36:15.177Z,2.87
2022-11-03T18:39:03.037Z,3.30
2022-11-03T18:41:49.889Z,3.07
2022-11-03T18:44:36.727Z,2.70
2022-11-03T18:47:26.849Z,3.10
2022-11-03T18:50:14.937Z,3.30
2022-11-03T18:53:01.946Z,2.97
2022-11-03T18:55:49.089Z,3.10
2022-11-03T18:58:37.107Z,3.20
2022-11-03T19:01:29.340Z,3.43
2022-11-03T19:04:23.269Z,3.40
2022-11-03T19:07:12.514Z,2.77
2022-11-03T19:10:01.265Z,2.87
2022-11-03T19:12:48.819Z,2.90
2022-11-03T19:15:38.736Z,3.40
2022-11-03T19:18:30.646Z,3.37
2022-11-03T19:21:20.666Z,3.20
2022-11-03T19:24:07.638Z,3.40
2022-11-03T19:27:00.018Z,4.03
2022-11-03T19:29:47.409Z,3.47
2022-11-03T19:32:35.633Z,3.67
2022-11-03T19:35:25.963Z,3.37
2022-11-03T19:38:14.143Z,3.53
2022-11-03T19:41:19.574Z,3.97
2022-11-03T19:44:09.495Z,3.47
2022-11-03T19:46:56.309Z,3.30
2022-11-03T19:49:43.803Z,3.70
2022-11-03T19:52:31.693Z,3.73
2022-11-03T19:55:19.507Z,3.27
2022-11-03T19:58:18.741Z,3.77
2022-11-03T20:01:08.681Z,3.30
2022-11-03T20:03:55.781Z,3.83
2022-11-03T20:06:42.615Z,3.83
2022-11-03T20:09:30.072Z,3.53
2022-11-03T20:12:19.035Z,3.43
2022-11-03T20:15:26.543Z,3.87
2022-11-03T20:18:14.002Z,3.47
2022-11-03T20:21:00.917Z,3.80
2022-11-03T20:23:48.455Z,3.43
2022-11-03T20:26:35.341Z,3.00
2022-11-03T20:29:22.206Z,3.50
2022-11-03T20:32:12.767Z,3.37
2022-11-03T20:34:59.585Z,3.67
2022-11-03T20:37:47.357Z,4.10
2022-11-03T20:40:34.169Z,3.97
2022-11-03T20:43:29.290Z,3.50
2022-11-03T20:46:23.642Z,3.70
2022-11-03T20:49:10.485Z,3.50
2022-11-03T20:51:57.467Z,4.17
2022-11-03T20:54:44.672Z,3.70
2022-11-03T20:57:31.475Z,4.00
2022-11-03T21:00:21.676Z,3.73
2022-11-03T21:03:31.318Z,4.07
2022-11-03T21:06:24.271Z,3.60
2022-11-03T21:09:16.365Z,3.40
2022-11-03T21:12:03.888Z,3.33
2022-11-03T21:15:09.714Z,3.53
2022-11-03T21:18:15.114Z,3.10
2022-11-03T21:21:02.734Z,3.37
2022-11-03T21:23:50.160Z,3.70
2022-11-03T21:26:38.527Z,4.10
2022-11-03T21:29:53.391Z,3.60
2022-11-03T21:32:32.906Z,3.60
2022-11-03T21:35:21.404Z,4.20
2022-11-03T21:38:09.077Z,3.77
2022-11-03T21:41:16.278Z,3.83
2022-11-03T21:44:16.126Z,3.87
2022-11-03T21:47:03.683Z,4.20
2022-11-03T21:49:51.520Z,4.50
2022-11-03T21:52:39.130Z,4.67
2022-11-03T21:55:26.490Z,4.87
2022-11-03T21:58:13.822Z,4.17
2022-11-03T22:01:01.616Z,4.40
2022-11-03T22:03:48.539Z,4.43
2022-11-03T22:06:35.440Z,4.00
2022-11-03T22:09:22.777Z,4.17
2022-11-03T22:12:10.608Z,4.33
2022-11-03T22:15:16.202Z,4.37
2022-11-03T22:18:04.075Z,4.33
2022-11-03T22:21:09.439Z,4.10
2022-11-03T22:24:14.585Z,3.93
2022-11-03T22:27:01.377Z,4.73
2022-11-03T22:30:06.967Z,4.60
2022-11-03T22:32:55.010Z,4.73
2022-11-03T22:36:00.465Z,5.00
2022-11-03T22:39:05.658Z,5.17
2022-11-03T22:42:11.246Z,4.97
2022-11-03T22:45:16.562Z,5.07
2022-11-03T22:48:04.694Z,4.53
2022-11-03T22:51:05.435Z,4.50
2022-11-03T22:54:10.521Z,4.60
2022-11-03T22:56:57.321Z,4.70
2022-11-03T22:59:45.394Z,4.47
2022-11-03T23:02:32.320Z,4.47
2022-11-03T23:05:19.190Z,4.77
2022-11-03T23:08:06.151Z,4.27
2022-11-03T23:10:53.008Z,4.30
2022-11-03T23:13:39.794Z,4.40
2022-11-03T23:16:28.093Z,4.00
2022-11-03T23:19:33.936Z,4.30
2022-11-03T23:22:20.782Z,3.70
2022-11-03T23:25:07.766Z,4.60
2022-11-03T23:27:54.938Z,4.63
2022-11-03T23:30:42.400Z,4.00
2022-11-03T23:33:30.407Z,4.13
2022-11-03T23:36:17.721Z,3.73
2022-11-03T23:39:05.026Z,3.80
2022-11-03T23:41:51.847Z,3.80
2022-11-03T23:44:57.009Z,3.57
2022-11-03T23:48:02.379Z,3.40
2022-11-03T23:50:49.186Z,4.13
2022-11-03T23:53:36.003Z,4.10
2022-11-03T23:56:42.593Z,3.83
2022-11-03T23:59:30.378Z,3.50
